Time;durP1;ratioP1;P1;durP2;ratioP2;P2;SDS_P1;SDS_P2;PMS_P1;PMS_P2;Temp;Humidity;BMP_temperature;BMP_pressure;BME280_temperature;BME280_humidity;BME280_pressure;Samples;Min_cycle;Max_cycle;Signal;HPM_P1;HPM_P2
2021/06/16 11:32:14;;;;;;;1145.43;999.90;;;27.10;99.90;;;;;;5135293;27;20868;-66
2021/06/16 11:34:51;;;;;;;1112.90;999.90;;;27.10;99.90;;;;;;5111160;28;20173;-66
2021/06/16 11:37:54;;;;;;;1131.97;999.90;;;27.30;99.90;;;;;;5111045;28;20158;-67
2021/06/16 11:40:20;;;;;;;1121.38;999.90;;;27.40;99.90;;;;;;5111008;28;20170;-66
2021/06/16 11:42:46;;;;;;;1095.95;999.38;;;27.50;99.90;;;;;;5110921;28;20180;-67
2021/06/16 11:45:12;;;;;;;1079.20;991.63;;;27.60;99.90;;;;;;5110910;28;20185;-69
2021/06/16 11:47:39;;;;;;;1108.63;999.90;;;27.60;99.90;;;;;;5110727;28;20315;-69
2021/06/16 11:50:07;;;;;;;1097.75;999.78;;;27.70;99.90;;;;;;5110629;28;20183;-68
2021/06/16 11:52:33;;;;;;;1083.63;994.08;;;27.80;99.90;;;;;;5110812;28;20173;-68
2021/06/16 11:54:58;;;;;;;953.58;883.47;;;27.90;99.90;;;;;;5110669;28;20250;-68
2021/06/16 11:57:28;;;;;;;1004.03;926.55;;;27.80;99.90;;;;;;5109602;28;20167;-68
2021/06/16 11:59:54;;;;;;;1009.55;932.88;;;27.80;99.90;;;;;;5109873;28;20162;-66
2021/06/16 12:02:28;;;;;;;1000.25;924.22;;;27.90;99.90;;;;;;5110550;28;20169;-68
2021/06/16 12:04:59;;;;;;;1053.47;968.88;;;28.00;99.90;;;;;;5110667;28;20264;-65
2021/06/16 12:07:30;;;;;;;922.53;856.85;;;28.10;99.90;;;;;;5110550;28;20511;-65
2021/06/16 12:10:07;;;;;;;874.17;814.60;;;28.30;99.90;;;;;;5110329;28;20163;-65
2021/06/16 12:12:57;;;;;;;935.90;868.53;;;28.20;99.90;;;;;;5110001;28;20253;-65
2021/06/16 12:15:23;;;;;;;865.92;807.38;;;28.10;99.90;;;;;;5110458;28;20169;-66
2021/06/16 12:18:03;;;;;;;868.38;809.22;;;28.10;99.90;;;;;;5109066;28;20177;-66
2021/06/16 12:20:33;;;;;;;867.15;808.60;;;28.00;99.90;;;;;;5110302;28;20182;-65
2021/06/16 12:23:00;;;;;;;829.95;774.83;;;28.10;99.90;;;;;;5108918;28;20274;-68
2021/06/16 12:25:31;;;;;;;960.78;890.83;;;28.20;99.90;;;;;;5110117;28;20163;-68
2021/06/16 12:27:58;;;;;;;885.35;824.47;;;28.30;99.90;;;;;;5110205;28;20171;-68
2021/06/16 12:30:32;;;;;;;933.80;867.45;;;28.60;99.90;;;;;;5109884;28;20297;-68
2021/06/16 12:33:23;;;;;;;871.20;811.92;;;28.80;99.90;;;;;;5108750;28;20195;-68
2021/06/16 12:36:15;;;;;;;858.42;800.55;;;29.10;99.90;;;;;;5109973;28;20169;-68
2021/06/16 12:38:44;;;;;;;770.65;721.00;;;29.40;99.90;;;;;;5110028;28;20658;-68
2021/06/16 12:41:25;;;;;;;814.03;761.03;;;29.60;99.90;;;;;;5109848;28;20198;-66
2021/06/16 12:43:52;;;;;;;740.80;693.92;;;29.70;99.90;;;;;;5095807;28;20171;-67
2021/06/16 12:46:17;;;;;;;804.30;751.67;;;29.80;99.90;;;;;;5096123;28;20228;-65
2021/06/16 12:48:43;;;;;;;804.72;751.95;;;30.00;99.90;;;;;;5096143;28;20170;-66
2021/06/16 12:51:09;;;;;;;757.95;709.30;;;30.10;99.90;;;;;;5096054;28;20226;-66
2021/06/16 12:53:39;;;;;;;837.05;781.17;;;30.30;99.90;;;;;;5096112;28;20179;-66
2021/06/16 12:56:06;;;;;;;749.78;701.58;;;30.40;99.90;;;;;;5096056;28;20175;-66
2021/06/16 12:58:44;;;;;;;900.20;836.83;;;30.30;99.90;;;;;;5095945;28;20163;-68
2021/06/16 13:01:16;;;;;;;941.00;872.63;;;30.20;99.90;;;;;;5094698;28;20261;-66
2021/06/16 13:03:49;;;;;;;863.92;804.75;;;30.20;99.90;;;;;;5095904;28;20171;-68
2021/06/16 13:06:15;;;;;;;840.50;784.38;;;30.50;99.90;;;;;;5094680;28;20175;-68
2021/06/16 13:08:46;;;;;;;859.20;800.67;;;30.70;99.90;;;;;;5095817;28;20216;-68
2021/06/16 13:11:25;;;;;;;750.05;702.13;;;30.90;99.90;;;;;;5095694;28;20191;-68
2021/06/16 13:14:19;;;;;;;659.00;618.25;;;31.30;99.90;;;;;;5095674;28;20159;-68
2021/06/16 13:16:59;;;;;;;506.45;478.60;;;31.50;99.90;;;;;;5094355;28;20257;-70
2021/06/16 13:19:24;;;;;;;406.80;385.42;;;31.50;99.90;;;;;;5095540;28;20216;-69
2021/06/16 13:22:05;;;;;;;513.08;484.80;;;31.40;99.90;;;;;;5095587;28;20175;-65
2021/06/16 13:24:32;;;;;;;897.58;834.10;;;31.10;99.90;;;;;;5095586;28;20163;-64
2021/06/16 13:27:00;;;;;;;876.03;815.38;;;31.30;99.90;;;;;;5095479;28;20162;-65
2021/06/16 13:29:30;;;;;;;681.47;639.03;;;31.70;99.90;;;;;;5095457;28;20169;-65
2021/06/16 13:31:56;;;;;;;602.63;566.05;;;32.10;99.90;;;;;;5095017;28;20219;-65
2021/06/16 13:34:22;;;;;;;22.02;21.33;;;32.20;99.90;;;;;;5095362;28;20514;-65
2021/06/16 13:36:47;;;;;;;25.92;25.02;;;32.30;99.90;;;;;;5095354;28;20185;-65
2021/06/16 13:39:13;;;;;;;47.20;45.22;;;32.10;99.90;;;;;;5095270;28;20167;-65
2021/06/16 13:41:39;;;;;;;23.63;22.85;;;31.90;99.90;;;;;;5095166;28;20640;-65
2021/06/16 13:44:05;;;;;;;70.53;67.05;;;31.80;99.90;;;;;;5095165;28;20167;-65
2021/06/16 13:46:31;;;;;;;38.55;37.05;;;32.00;99.90;;;;;;5094856;28;20159;-68
2021/06/16 13:48:57;;;;;;;37.50;36.05;;;32.10;99.90;;;;;;5093645;28;20181;-67
2021/06/16 13:51:22;;;;;;;16.38;15.98;;;32.40;99.90;;;;;;5095040;28;20174;-67
2021/06/16 13:53:48;;;;;;;14.48;14.07;;;32.70;99.90;;;;;;5094048;28;20172;-68
2021/06/16 13:56:13;;;;;;;15.27;14.88;;;32.90;99.90;;;;;;5094958;28;20163;-68
2021/06/16 13:58:39;;;;;;;26.35;25.45;;;33.10;99.90;;;;;;5094901;28;20185;-68
2021/06/16 14:01:05;;;;;;;32.47;31.27;;;33.20;99.90;;;;;;5093393;28;20345;-65
2021/06/16 14:03:31;;;;;;;30.45;29.35;;;33.20;99.90;;;;;;5094821;28;20155;-66
2021/06/16 14:05:58;;;;;;;28.33;27.30;;;32.60;99.90;;;;;;5093437;28;20201;-66
2021/06/16 14:08:24;;;;;;;15.52;15.13;;;32.10;99.90;;;;;;5094730;28;20167;-66
2021/06/16 14:10:50;;;;;;;24.63;23.83;;;31.90;99.90;;;;;;5094663;28;20628;-65
2021/06/16 14:13:16;;;;;;;15.77;15.38;;;32.30;99.90;;;;;;5094682;28;20216;-65
2021/06/16 14:15:42;;;;;;;18.17;17.33;;;32.80;99.90;;;;;;5094499;28;20635;-65
2021/06/16 14:18:08;;;;;;;20.17;19.52;;;33.20;99.90;;;;;;5094525;28;20164;-65
2021/06/16 14:20:35;;;;;;;27.25;26.27;;;33.50;99.90;;;;;;5094411;28;20240;-65
2021/06/16 14:23:01;;;;;;;50.00;47.90;;;33.90;99.90;;;;;;5094435;28;20163;-65
2021/06/16 14:25:27;;;;;;;69.57;66.53;;;34.00;99.90;;;;;;5094403;28;20171;-69
2021/06/16 14:27:52;;;;;;;47.35;45.45;;;34.10;99.90;;;;;;5094304;28;20193;-68
2021/06/16 14:30:20;;;;;;;52.15;49.92;;;34.10;99.90;;;;;;5093993;28;20249;-68
2021/06/16 14:32:50;;;;;;;72.65;69.50;;;34.20;99.90;;;;;;5092922;28;20191;-67
2021/06/16 14:35:17;;;;;;;112.78;107.63;;;34.30;99.90;;;;;;5094181;28;20175;-66
2021/06/16 14:37:43;;;;;;;67.60;64.63;;;34.10;99.90;;;;;;5094083;28;20171;-66
2021/06/16 14:40:10;;;;;;;69.43;66.43;;;33.90;99.90;;;;;;5093852;28;20693;-66
2021/06/16 14:42:36;;;;;;;80.40;76.68;;;33.80;99.90;;;;;;5093951;28;20174;-67
2021/06/16 14:45:01;;;;;;;76.50;73.10;;;33.60;99.90;;;;;;5093661;28;20167;-67
2021/06/16 14:47:27;;;;;;;73.82;70.60;;;33.60;99.90;;;;;;5093943;28;20159;-66
2021/06/16 14:49:52;;;;;;;77.85;74.40;;;33.70;99.90;;;;;;5092481;28;20615;-66
2021/06/16 14:52:19;;;;;;;86.32;82.53;;;33.90;99.90;;;;;;5093840;28;20238;-66
2021/06/16 14:54:46;;;;;;;82.43;78.72;;;34.10;99.90;;;;;;5093806;28;20168;-67
2021/06/16 14:57:12;;;;;;;69.78;66.75;;;34.30;99.90;;;;;;5092452;28;20175;-66
2021/06/16 14:59:38;;;;;;;84.00;80.30;;;34.60;99.90;;;;;;5093494;28;20705;-64
2021/06/16 15:02:04;;;;;;;135.18;129.00;;;34.80;99.90;;;;;;5093729;28;20199;-65
2021/06/16 15:04:30;;;;;;;135.02;128.82;;;35.00;99.90;;;;;;5093627;28;20166;-65
2021/06/16 15:06:56;;;;;;;128.98;122.88;;;35.20;99.90;;;;;;5093381;28;20167;-65
2021/06/16 15:09:22;;;;;;;41.05;38.88;;;35.30;99.90;;;;;;5093497;28;20163;-65
2021/06/16 15:11:47;;;;;;;68.25;65.28;;;35.50;99.90;;;;;;5093491;28;20266;-70
2021/06/16 15:14:13;;;;;;;35.35;34.00;;;35.30;99.90;;;;;;5093866;28;20212;-65
2021/06/16 15:16:39;;;;;;;68.80;65.78;;;35.30;99.90;;;;;;5093488;28;20169;-65
2021/06/16 15:19:05;;;;;;;25.38;24.52;;;35.30;99.90;;;;;;5093503;28;20183;-64
2021/06/16 15:21:31;;;;;;;61.35;58.67;;;35.30;99.90;;;;;;5093338;28;20663;-64
2021/06/16 15:23:57;;;;;;;42.97;41.28;;;35.30;99.90;;;;;;5093392;28;20307;-64
2021/06/16 15:26:22;;;;;;;42.85;41.10;;;35.30;99.90;;;;;;5092157;28;20163;-63
2021/06/16 15:28:48;;;;;;;22.02;21.33;;;35.30;99.90;;;;;;5093328;28;20171;-64
2021/06/16 15:31:15;;;;;;;85.18;81.35;;;35.30;99.90;;;;;;5091885;28;20230;-64
2021/06/16 15:33:42;;;;;;;112.18;107.00;;;35.10;99.90;;;;;;5093315;28;20186;-64
2021/06/16 15:36:08;;;;;;;49.42;47.38;;;34.90;99.90;;;;;;5093321;28;20171;-64
2021/06/16 15:38:34;;;;;;;24.92;24.08;;;34.60;99.90;;;;;;5093364;28;20685;-64
2021/06/16 15:41:00;;;;;;;111.72;106.55;;;34.10;99.90;;;;;;5093051;28;20187;-64
2021/06/16 15:43:26;;;;;;;392.77;371.77;;;33.90;99.90;;;;;;5093197;28;20174;-64
2021/06/16 15:45:51;;;;;;;18.65;18.15;;;34.00;99.90;;;;;;5093210;28;20170;-67
2021/06/16 15:48:17;;;;;;;239.98;228.50;;;34.20;99.90;;;;;;5093162;28;20159;-65
2021/06/16 15:50:43;;;;;;;127.28;121.43;;;34.50;99.90;;;;;;5093148;28;20235;-65
2021/06/16 15:53:10;;;;;;;241.55;229.85;;;34.80;99.90;;;;;;5093093;28;20160;-65
2021/06/16 15:55:36;;;;;;;378.33;358.65;;;34.80;99.90;;;;;;5093134;28;20219;-65
2021/06/16 15:58:03;;;;;;;648.92;608.35;;;34.70;99.90;;;;;;5093068;28;20167;-65
2021/06/16 16:00:29;;;;;;;450.38;425.77;;;34.90;99.90;;;;;;5093002;28;20201;-65
2021/06/16 16:02:55;;;;;;;485.13;457.27;;;35.10;99.90;;;;;;5093011;28;20174;-65
2021/06/16 16:05:22;;;;;;;214.43;204.23;;;35.30;99.90;;;;;;5093021;28;20167;-65
2021/06/16 16:07:48;;;;;;;364.83;346.17;;;35.40;99.90;;;;;;5093001;28;20173;-65
2021/06/16 16:10:14;;;;;;;80.90;77.30;;;35.50;99.90;;;;;;5092971;28;20167;-65
2021/06/16 16:12:41;;;;;;;268.25;254.75;;;35.70;99.90;;;;;;5092744;28;20221;-65
2021/06/16 16:15:13;;;;;;;173.85;165.70;;;35.80;99.90;;;;;;5092801;28;20163;-65
2021/06/16 16:17:39;;;;;;;70.80;67.68;;;35.90;99.90;;;;;;5093928;28;20691;-65
2021/06/16 16:20:07;;;;;;;91.10;86.95;;;35.90;99.90;;;;;;5095219;28;20167;-65
2021/06/16 16:22:33;;;;;;;428.63;404.42;;;36.00;99.90;;;;;;5094208;28;20163;-65
2021/06/16 16:24:59;;;;;;;287.13;273.10;;;36.30;99.90;;;;;;5095931;28;20159;-65
2021/06/16 16:27:27;;;;;;;169.52;161.60;;;36.40;99.90;;;;;;5096458;28;20182;-65
2021/06/16 16:29:54;;;;;;;360.33;341.77;;;36.50;99.90;;;;;;5096422;28;20224;-65
2021/06/16 16:32:20;;;;;;;443.52;418.63;;;36.30;99.90;;;;;;5096376;28;20167;-65
2021/06/16 16:34:45;;;;;;;433.98;409.73;;;36.30;99.90;;;;;;5094489;28;20528;-65
2021/06/16 16:37:11;;;;;;;362.52;343.83;;;36.40;99.90;;;;;;5096114;28;20635;-65
2021/06/16 16:39:37;;;;;;;620.53;582.28;;;36.40;99.90;;;;;;5096175;28;20630;-65
2021/06/16 16:42:03;;;;;;;364.17;345.65;;;36.60;99.90;;;;;;5096010;28;20211;-65
2021/06/16 16:44:29;;;;;;;184.50;175.77;;;36.80;99.90;;;;;;5096132;28;20170;-65
2021/06/16 16:46:54;;;;;;;36.83;35.35;;;36.70;99.90;;;;;;5095470;28;20164;-65
2021/06/16 16:49:20;;;;;;;176.63;168.07;;;36.60;99.90;;;;;;5095818;28;20244;-65
2021/06/16 16:51:45;;;;;;;705.08;659.63;;;36.50;99.90;;;;;;5095846;28;20620;-66
2021/06/16 16:54:14;;;;;;;26.77;25.83;;;36.30;99.90;;;;;;5094334;28;20195;-65
2021/06/16 16:56:40;;;;;;;25.35;24.45;;;35.70;99.90;;;;;;5095767;28;20168;-65
2021/06/16 16:59:06;;;;;;;23.48;22.70;;;35.20;99.90;;;;;;5094353;28;20212;-65
2021/06/16 17:01:31;;;;;;;110.40;105.35;;;34.80;99.90;;;;;;5095659;28;20590;-65
2021/06/16 17:03:57;;;;;;;255.65;243.13;;;34.60;99.90;;;;;;5095735;28;20561;-65
2021/06/16 17:06:22;;;;;;;122.50;116.80;;;34.40;99.90;;;;;;5095668;28;20174;-65
2021/06/16 17:08:52;;;;;;;215.57;205.38;;;34.30;99.90;;;;;;5095695;28;20175;-65
2021/06/16 17:11:20;;;;;;;273.63;260.48;;;34.30;99.90;;;;;;5095610;28;20621;-65
2021/06/16 17:13:47;;;;;;;251.68;239.63;;;34.40;99.90;;;;;;5095558;28;20178;-65
2021/06/16 17:16:13;;;;;;;214.57;204.30;;;34.60;99.90;;;;;;5095532;28;20636;-65
2021/06/16 17:18:40;;;;;;;368.30;349.40;;;34.60;99.90;;;;;;5095428;28;20186;-65
2021/06/16 17:21:06;;;;;;;308.10;292.25;;;34.80;99.90;;;;;;5095325;28;20281;-65
2021/06/16 17:23:32;;;;;;;360.42;342.08;;;34.80;99.90;;;;;;5095338;28;20247;-65
2021/06/16 17:25:58;;;;;;;230.15;218.98;;;34.70;99.90;;;;;;5095320;28;20545;-65
2021/06/16 17:28:23;;;;;;;118.05;112.63;;;34.80;99.90;;;;;;5095132;28;20163;-65
2021/06/16 17:30:49;;;;;;;513.40;484.20;;;34.80;99.90;;;;;;5094670;28;20735;-65
2021/06/16 17:33:15;;;;;;;571.03;536.40;;;34.90;99.90;;;;;;5095148;28;20635;-65
2021/06/16 17:35:43;;;;;;;474.05;447.13;;;34.90;99.90;;;;;;5095008;28;20179;-65
2021/06/16 17:38:09;;;;;;;534.05;502.98;;;35.00;99.90;;;;;;5095153;28;20201;-65
2021/06/16 17:40:34;;;;;;;379.08;359.17;;;35.00;99.90;;;;;;5094969;28;20533;-65
2021/06/16 17:43:00;;;;;;;523.17;492.52;;;35.10;99.90;;;;;;5094943;28;20623;-65
2021/06/16 17:45:28;;;;;;;325.60;308.88;;;35.20;99.90;;;;;;5094963;28;20172;-65
2021/06/16 17:47:55;;;;;;;691.20;647.50;;;35.00;99.90;;;;;;5094815;28;20591;-65
2021/06/16 17:50:23;;;;;;;653.40;612.50;;;35.20;99.90;;;;;;5094822;28;20639;-65
2021/06/16 17:52:49;;;;;;;86.53;82.63;;;35.20;99.90;;;;;;5094799;28;20195;-65
2021/06/16 17:55:16;;;;;;;41.35;39.65;;;35.00;99.90;;;;;;5094782;28;20212;-65
2021/06/16 17:57:42;;;;;;;294.30;279.48;;;34.60;99.90;;;;;;5094812;28;20174;-65
2021/06/16 18:00:13;;;;;;;339.02;321.38;;;34.20;99.90;;;;;;5094624;28;20170;-65
2021/06/16 18:02:39;;;;;;;494.67;465.38;;;33.80;99.90;;;;;;5094633;28;20317;-65
2021/06/16 18:05:06;;;;;;;494.50;466.85;;;33.40;99.90;;;;;;5094635;28;20634;-65
2021/06/16 18:07:32;;;;;;;309.60;294.40;;;33.20;99.90;;;;;;5094455;28;20163;-65
2021/06/16 18:09:59;;;;;;;355.42;337.20;;;33.10;99.90;;;;;;5094510;28;20642;-65
2021/06/16 18:12:26;;;;;;;145.70;138.93;;;32.90;99.90;;;;;;5094349;28;20650;-65
2021/06/16 18:14:52;;;;;;;91.43;87.35;;;32.70;99.90;;;;;;5094453;28;20579;-64
2021/06/16 18:17:18;;;;;;;329.95;313.35;;;32.60;99.90;;;;;;5094270;28;20255;-65
2021/06/16 18:19:44;;;;;;;180.60;172.15;;;32.50;99.90;;;;;;5094299;28;20248;-65
2021/06/16 18:22:10;;;;;;;329.10;312.10;;;32.50;99.90;;;;;;5092930;28;20234;-64
2021/06/16 18:24:36;;;;;;;82.32;78.68;;;32.50;99.90;;;;;;5094318;28;20170;-64
2021/06/16 18:27:02;;;;;;;91.80;87.68;;;32.30;99.90;;;;;;5094220;28;20168;-64
2021/06/16 18:29:28;;;;;;;112.55;107.18;;;32.10;99.90;;;;;;5094122;28;20171;-64
2021/06/16 18:31:53;;;;;;;178.93;170.52;;;31.80;99.90;;;;;;5093835;28;20258;-64
2021/06/16 18:34:19;;;;;;;267.58;254.63;;;31.70;99.90;;;;;;5092874;28;20233;-64
2021/06/16 18:36:44;;;;;;;377.63;358.42;;;31.90;99.90;;;;;;5093912;28;20171;-65
2021/06/16 18:39:10;;;;;;;323.92;308.10;;;32.00;99.90;;;;;;5094065;28;20163;-65
2021/06/16 18:41:36;;;;;;;357.52;339.08;;;32.30;99.90;;;;;;5093435;28;20599;-65
2021/06/16 18:44:01;;;;;;;557.63;524.42;;;32.20;99.90;;;;;;5093924;28;20246;-65
2021/06/16 18:46:27;;;;;;;334.58;317.60;;;32.20;99.90;;;;;;5093903;28;20164;-64
2021/06/16 18:48:52;;;;;;;482.27;455.70;;;32.00;99.90;;;;;;5092610;28;20171;-65
2021/06/16 18:51:18;;;;;;;573.22;538.83;;;31.90;99.90;;;;;;5094070;28;20766;-64
2021/06/16 18:53:43;;;;;;;372.15;353.17;;;31.90;99.90;;;;;;5093611;28;20648;-65
2021/06/16 18:56:09;;;;;;;313.35;298.13;;;31.90;99.90;;;;;;5093744;28;20171;-65
2021/06/16 18:58:35;;;;;;;202.10;192.65;;;32.00;99.90;;;;;;5093710;28;20178;-65
2021/06/16 19:01:03;;;;;;;114.47;109.22;;;32.00;99.90;;;;;;5093514;28;20274;-65
2021/06/16 19:03:31;;;;;;;217.07;206.68;;;31.80;99.90;;;;;;5092308;28;20178;-65
2021/06/16 19:05:57;;;;;;;136.13;129.82;;;31.70;99.90;;;;;;5093600;28;20163;-65
2021/06/16 19:08:26;;;;;;;48.63;46.65;;;31.50;99.90;;;;;;5093381;28;20171;-64
2021/06/16 19:10:55;;;;;;;68.80;65.78;;;31.20;99.90;;;;;;5093311;28;20167;-64
2021/06/16 19:13:22;;;;;;;53.95;51.70;;;30.90;99.90;;;;;;5093389;28;20174;-64
2021/06/16 19:15:50;;;;;;;118.45;112.93;;;30.60;99.90;;;;;;5093374;28;20174;-64
2021/06/16 19:18:16;;;;;;;154.27;147.10;;;30.20;99.90;;;;;;5093476;28;20167;-64
2021/06/16 19:20:43;;;;;;;418.88;397.05;;;29.90;99.90;;;;;;5093134;28;20190;-64
2021/06/16 19:23:09;;;;;;;172.25;164.27;;;29.80;99.90;;;;;;5093436;28;20254;-64
2021/06/16 19:25:36;;;;;;;268.08;255.65;;;29.50;99.90;;;;;;5093129;28;20528;-64
2021/06/16 19:28:03;;;;;;;337.77;321.67;;;29.20;99.90;;;;;;5093382;28;20504;-64
2021/06/16 19:30:28;;;;;;;431.17;409.00;;;28.90;99.90;;;;;;5091794;28;20253;-64
2021/06/16 19:32:54;;;;;;;486.30;460.30;;;28.70;99.90;;;;;;5093124;28;20549;-64
2021/06/16 19:35:26;;;;;;;420.90;399.25;;;28.50;99.90;;;;;;5093212;28;20204;-64
